Zero, Nebraska
Current Conditions -  °F | °C
As of 7:53 AM on Thursday 30 Oct 2014 (Local Time) from KHSI Reporting Station
Clear Clear  
Wind Chill: 36°   Ceiling: Unl
Heat Index: 42°   Visibility: 10mi
Dew Point: 31°   Wind: 12mph
Humidity: 65%   Direction: 310°NW
Pressure: 30.11"   Gusts: NA
Location:  40.4373°N, 98.4396°W
Report Text: KHSI 301253Z AUTO 31010KT 10SM CLR 06/M01 A3011 RMK AO2 SLP200 T00561006
Loading
Personal Weather Stations






























Interactive Weather Map
Tropical Storm Tracking
New forecast layout! Learn more

10-Day Weather Forecast

Advertisements
Track Severe Weather on mobile